GFOXP EGPE-EGEI
Flight info
| Callsign | GFOXP |
|---|---|
| Flight time | N/A |
| Altitude | 8000 |
| Route | RUGID DCT SUPIT/N0178F070 |
| Aircraft | C208/L-SDFGR/C |
Departure
| Time | 2026-05-06 15:35 |
|---|---|
| Airport | Inverness Airport (EGPE) |
Arrival
| Time | N/A |
|---|---|
| Airport | Broadford Airstrip (EGEI) |
| Time | Latitude | Longitude | Altitude | Speed | Heading |
|---|---|---|---|---|---|
| 2026-05-06 15:15 | 57.54159 | -4.06508 | 35 ft | 0 kts | 230° |
| 2026-05-06 15:21 | 57.54158 | -4.06522 | 35 ft | 1 kts | 315° |
| 2026-05-06 15:21 | 57.54158 | -4.06510 | 35 ft | 0 kts | 230° |
| 2026-05-06 15:24 | 57.54158 | -4.06509 | 35 ft | 0 kts | 230° |
| 2026-05-06 15:27 | 57.54159 | -4.06509 | 35 ft | 0 kts | 230° |
| 2026-05-06 15:28 | 57.54158 | -4.06518 | 35 ft | 2 kts | 305° |
| 2026-05-06 15:28 | 57.54162 | -4.06520 | 35 ft | 2 kts | 11° |
| 2026-05-06 15:28 | 57.54162 | -4.06495 | 35 ft | 2 kts | 98° |
| 2026-05-06 15:28 | 57.54174 | -4.06460 | 35 ft | 8 kts | 4° |
| 2026-05-06 15:29 | 57.54231 | -4.06416 | 35 ft | 14 kts | 92° |
| 2026-05-06 15:29 | 57.54215 | -4.06238 | 35 ft | 14 kts | 130° |
| 2026-05-06 15:29 | 57.54149 | -4.06177 | 35 ft | 15 kts | 155° |
| 2026-05-06 15:29 | 57.54061 | -4.06145 | 35 ft | 12 kts | 194° |
| 2026-05-06 15:30 | 57.53988 | -4.06156 | 35 ft | 12 kts | 182° |
| 2026-05-06 15:30 | 57.53888 | -4.06170 | 35 ft | 12 kts | 187° |
| 2026-05-06 15:30 | 57.53807 | -4.06185 | 35 ft | 10 kts | 179° |
| 2026-05-06 15:30 | 57.53751 | -4.06087 | 37 ft | 16 kts | 123° |
| 2026-05-06 15:31 | 57.53720 | -4.05898 | 38 ft | 11 kts | 56° |
| 2026-05-06 15:31 | 57.53743 | -4.05854 | 38 ft | 0 kts | 49° |
| 2026-05-06 15:34 | 57.53743 | -4.05855 | 38 ft | 0 kts | 49° |
| 2026-05-06 15:35 | 57.53777 | -4.05781 | 39 ft | 27 kts | 49° |
| 2026-05-06 15:35 | 57.54063 | -4.05161 | 47 ft | 90 kts | 49° |
| 2026-05-06 15:35 | 57.54480 | -4.04270 | 434 ft | 95 kts | 47° |
| 2026-05-06 15:35 | 57.54967 | -4.03425 | 856 ft | 97 kts | 46° |
| 2026-05-06 15:36 | 57.55073 | -4.02211 | 1268 ft | 103 kts | 103° |
| 2026-05-06 15:36 | 57.54855 | -4.00929 | 1718 ft | 105 kts | 117° |
| 2026-05-06 15:36 | 57.54574 | -4.00202 | 1989 ft | 106 kts | 145° |
| 2026-05-06 15:37 | 57.54284 | -3.99996 | 2168 ft | 105 kts | 178° |
| 2026-05-06 15:37 | 57.54130 | -4.00017 | 2256 ft | 104 kts | 194° |
| 2026-05-06 15:38 | 57.53687 | -4.00976 | 2699 ft | 103 kts | 254° |
| 2026-05-06 15:38 | 57.53510 | -4.02279 | 3160 ft | 104 kts | 256° |
| 2026-05-06 15:38 | 57.53413 | -4.03620 | 3604 ft | 106 kts | 263° |
| 2026-05-06 15:38 | 57.53337 | -4.04986 | 4045 ft | 106 kts | 264° |
| 2026-05-06 15:39 | 57.53343 | -4.06359 | 4487 ft | 106 kts | 275° |
| 2026-05-06 15:39 | 57.53561 | -4.07677 | 4929 ft | 106 kts | 278° |
| 2026-05-06 15:39 | 57.53492 | -4.08995 | 5367 ft | 102 kts | 248° |
| 2026-05-06 15:39 | 57.53270 | -4.10232 | 5801 ft | 99 kts | 250° |
| 2026-05-06 15:40 | 57.53048 | -4.11431 | 6242 ft | 97 kts | 248° |
| 2026-05-06 15:40 | 57.52822 | -4.12593 | 6663 ft | 94 kts | 248° |
| 2026-05-06 15:40 | 57.52597 | -4.13730 | 7084 ft | 92 kts | 247° |
| 2026-05-06 15:40 | 57.52376 | -4.14833 | 7504 ft | 90 kts | 247° |
| 2026-05-06 15:41 | 57.52162 | -4.15891 | 7916 ft | 88 kts | 247° |
| 2026-05-06 15:41 | 57.51913 | -4.17109 | 8017 ft | 116 kts | 248° |
| 2026-05-06 15:41 | 57.51608 | -4.18650 | 8017 ft | 135 kts | 248° |
| 2026-05-06 15:41 | 57.51268 | -4.20345 | 8010 ft | 145 kts | 248° |
| 2026-05-06 15:42 | 57.50903 | -4.22146 | 8009 ft | 151 kts | 247° |
| 2026-05-06 15:42 | 57.50523 | -4.23992 | 8008 ft | 154 kts | 247° |